Time;durP1;ratioP1;P1;durP2;ratioP2;P2;SDS_P1;SDS_P2;PMS_P1;PMS_P2;Temp;Humidity;BMP_temperature;BMP_pressure;BME280_temperature;BME280_humidity;BME280_pressure;Samples;Min_cycle;Max_cycle;Signal;HPM_P1;HPM_P2
2023/01/19 00:01:08;;;;;;;16.80;9.97;;;2.00;99.90;;;;;;4913594;29;20208;-67
2023/01/19 00:03:37;;;;;;;15.50;9.97;;;2.00;99.90;;;;;;4907153;29;20637;-67
2023/01/19 00:06:06;;;;;;;16.17;9.47;;;2.00;99.90;;;;;;4903834;29;20183;-67
2023/01/19 00:08:35;;;;;;;15.97;9.70;;;2.00;99.90;;;;;;4914169;29;20209;-67
2023/01/19 00:11:04;;;;;;;20.13;10.40;;;2.00;99.90;;;;;;4907517;29;20491;-67
2023/01/19 00:13:33;;;;;;;16.53;9.90;;;2.10;99.90;;;;;;4914553;29;20197;-67
2023/01/19 00:16:03;;;;;;;13.17;9.57;;;2.00;99.90;;;;;;4915209;29;20546;-67
2023/01/19 00:18:31;;;;;;;13.80;9.30;;;2.00;99.90;;;;;;4903866;29;20656;-67
2023/01/19 00:21:00;;;;;;;17.07;9.63;;;1.90;99.90;;;;;;4910715;29;20224;-67
2023/01/19 00:23:28;;;;;;;14.63;9.90;;;1.80;99.90;;;;;;4911574;29;20233;-67
2023/01/19 00:25:56;;;;;;;25.27;10.17;;;1.80;99.90;;;;;;4907472;29;20293;-67
2023/01/19 00:28:26;;;;;;;18.00;9.37;;;1.70;99.90;;;;;;4906442;29;20208;-67
2023/01/19 00:30:55;;;;;;;19.10;9.60;;;1.60;99.90;;;;;;4914069;29;20206;-67
2023/01/19 00:33:25;;;;;;;17.00;9.33;;;1.50;99.90;;;;;;4917219;29;20205;-67
2023/01/19 00:35:55;;;;;;;19.20;10.33;;;1.50;99.90;;;;;;4901365;29;20669;-67
2023/01/19 00:38:23;;;;;;;14.90;9.37;;;1.50;99.90;;;;;;4900646;29;20209;-67
2023/01/19 00:40:51;;;;;;;19.70;10.13;;;1.50;99.90;;;;;;4911254;29;20633;-67
2023/01/19 00:43:20;;;;;;;17.77;9.87;;;1.40;99.90;;;;;;4899294;29;20564;-67
2023/01/19 00:45:48;;;;;;;18.63;10.33;;;1.40;99.90;;;;;;4911799;29;20201;-67
2023/01/19 00:48:17;;;;;;;14.13;9.43;;;1.40;99.90;;;;;;4915486;29;20201;-67
2023/01/19 00:50:48;;;;;;;14.03;9.00;;;1.30;99.90;;;;;;4915762;29;20696;-67
2023/01/19 00:53:16;;;;;;;18.20;9.17;;;1.30;99.90;;;;;;4912830;29;20205;-67
2023/01/19 00:55:45;;;;;;;19.83;9.33;;;1.30;99.90;;;;;;4897488;29;20228;-67
2023/01/19 00:58:13;;;;;;;15.83;9.90;;;1.30;99.90;;;;;;4915108;29;20222;-67
2023/01/19 01:00:41;;;;;;;15.17;9.53;;;1.30;99.90;;;;;;4914724;29;20208;-67
2023/01/19 01:03:10;;;;;;;15.03;9.33;;;1.30;99.90;;;;;;4912875;29;20197;-67
2023/01/19 01:05:41;;;;;;;19.90;10.17;;;1.20;99.90;;;;;;4916559;29;20198;-67
2023/01/19 01:08:10;;;;;;;14.27;9.23;;;1.30;99.90;;;;;;4914485;29;20197;-67
2023/01/19 01:10:39;;;;;;;19.87;9.93;;;1.30;99.90;;;;;;4908939;29;20583;-67
2023/01/19 01:13:07;;;;;;;16.23;8.87;;;1.30;99.90;;;;;;4920796;29;20197;-67
2023/01/19 01:15:50;;;;;;;13.77;8.80;;;1.30;99.90;;;;;;4911993;29;20217;-68
2023/01/19 01:18:20;;;;;;;21.77;9.70;;;1.30;99.90;;;;;;4911253;29;20209;-67
2023/01/19 01:20:49;;;;;;;14.80;8.97;;;1.30;99.90;;;;;;4913195;29;20212;-67
2023/01/19 01:23:21;;;;;;;19.73;9.27;;;1.30;99.90;;;;;;4904175;29;20233;-67
2023/01/19 01:25:50;;;;;;;23.40;10.10;;;1.30;99.90;;;;;;4916979;29;20269;-67
2023/01/19 01:28:18;;;;;;;17.83;8.87;;;1.30;99.90;;;;;;4913913;29;20198;-67
2023/01/19 01:30:46;;;;;;;16.80;9.00;;;1.40;99.90;;;;;;4916572;29;20675;-67
2023/01/19 01:33:15;;;;;;;18.60;9.00;;;1.40;99.90;;;;;;4917782;29;20655;-67
2023/01/19 01:36:03;;;;;;;18.90;9.23;;;1.40;99.90;;;;;;4913072;29;20221;-67
2023/01/19 01:38:34;;;;;;;18.93;9.80;;;1.30;99.90;;;;;;4916596;29;20198;-68
2023/01/19 01:41:02;;;;;;;16.77;9.63;;;1.30;99.90;;;;;;4911619;29;20592;-67
2023/01/19 01:43:43;;;;;;;16.53;9.70;;;1.30;99.90;;;;;;4916798;29;20201;-67
2023/01/19 01:46:14;;;;;;;25.20;10.70;;;1.20;99.90;;;;;;4904546;29;20253;-67
2023/01/19 01:48:46;;;;;;;21.03;10.40;;;1.20;99.90;;;;;;4909447;29;20194;-67
2023/01/19 01:51:25;;;;;;;18.63;9.80;;;1.30;99.90;;;;;;4917285;29;20208;-67
2023/01/19 01:54:06;;;;;;;19.47;10.27;;;1.30;99.90;;;;;;4913608;29;20609;-67
2023/01/19 01:56:37;;;;;;;18.50;9.93;;;1.40;99.90;;;;;;4915075;29;20213;-67
2023/01/19 01:59:10;;;;;;;23.37;10.30;;;1.40;99.90;;;;;;4913267;29;20213;-67
2023/01/19 02:04:28;;;;;;;15.40;9.63;;;1.50;99.90;;;;;;4910218;29;20252;-67
2023/01/19 02:15:17;;;;;;;18.07;9.40;;;1.70;99.90;;;;;;4911311;29;20714;-67
2023/01/19 02:17:46;;;;;;;17.37;9.67;;;1.60;99.90;;;;;;4911298;29;20225;-67
2023/01/19 02:20:14;;;;;;;20.47;9.90;;;1.60;99.90;;;;;;4912372;29;20239;-67
2023/01/19 02:22:47;;;;;;;20.83;10.40;;;1.50;99.90;;;;;;4911164;29;20293;-67
2023/01/19 02:25:19;;;;;;;16.37;9.40;;;1.50;99.90;;;;;;4910728;29;20194;-67
2023/01/19 02:27:49;;;;;;;22.10;10.47;;;1.40;99.90;;;;;;4914765;29;20202;-67
2023/01/19 02:30:18;;;;;;;15.27;9.30;;;1.30;99.90;;;;;;4913461;29;20202;-67
2023/01/19 02:32:47;;;;;;;24.23;10.87;;;1.30;99.90;;;;;;4911778;29;20217;-67
2023/01/19 02:35:15;;;;;;;21.20;10.67;;;1.30;99.90;;;;;;4906870;29;20196;-67
2023/01/19 02:37:45;;;;;;;18.40;10.73;;;1.30;99.90;;;;;;4907971;29;20301;-67
2023/01/19 02:40:18;;;;;;;18.53;10.07;;;1.30;99.90;;;;;;4911202;29;20213;-67
2023/01/19 02:42:50;;;;;;;19.60;10.47;;;1.30;99.90;;;;;;4913763;29;20568;-67
2023/01/19 02:45:21;;;;;;;16.80;10.30;;;1.40;99.90;;;;;;4913131;29;20205;-67
2023/01/19 02:47:52;;;;;;;19.27;10.47;;;1.40;99.90;;;;;;4914002;29;20658;-67
2023/01/19 02:50:45;;;;;;;24.27;11.17;;;1.30;99.90;;;;;;4907577;29;20213;-67
2023/01/19 02:53:30;;;;;;;20.17;10.47;;;1.40;99.90;;;;;;4927281;29;20194;-67
2023/01/19 02:56:07;;;;;;;18.77;10.10;;;1.50;99.90;;;;;;4911356;29;20373;-67
2023/01/19 02:58:46;;;;;;;20.97;10.60;;;1.50;99.90;;;;;;4911704;29;20213;-67
2023/01/19 03:01:21;;;;;;;22.27;9.83;;;1.40;99.90;;;;;;4924128;29;20199;-67
2023/01/19 03:03:55;;;;;;;27.50;10.27;;;1.40;99.90;;;;;;4914493;29;20252;-67
2023/01/19 03:06:36;;;;;;;19.13;9.60;;;1.40;99.90;;;;;;4921597;29;20763;-67
2023/01/19 03:09:13;;;;;;;18.93;9.57;;;1.40;99.90;;;;;;4926118;29;20220;-67
2023/01/19 03:11:46;;;;;;;22.17;9.50;;;1.40;99.90;;;;;;4907254;29;20204;-67
2023/01/19 03:14:23;;;;;;;20.63;9.73;;;1.40;99.90;;;;;;4914036;29;20197;-67
2023/01/19 03:16:54;;;;;;;16.60;8.93;;;1.50;99.90;;;;;;4907501;29;20221;-67
2023/01/19 03:19:28;;;;;;;18.70;9.73;;;1.60;99.90;;;;;;4903604;29;20205;-67
2023/01/19 03:21:59;;;;;;;18.37;9.30;;;1.60;99.90;;;;;;4914450;29;20201;-67
2023/01/19 03:24:33;;;;;;;25.30;8.63;;;1.70;99.90;;;;;;4910552;29;20859;-67
2023/01/19 03:27:11;;;;;;;25.50;9.00;;;1.80;99.90;;;;;;4909593;29;20222;-67
2023/01/19 03:29:45;;;;;;;18.53;9.37;;;1.80;99.90;;;;;;4908380;29;20703;-67
2023/01/19 03:32:17;;;;;;;21.17;9.47;;;1.90;99.90;;;;;;4925515;29;20202;-67
2023/01/19 03:34:51;;;;;;;20.10;9.17;;;1.90;99.90;;;;;;4907388;29;20708;-67
2023/01/19 03:37:21;;;;;;;18.13;9.27;;;2.00;99.90;;;;;;4912169;29;20209;-67
2023/01/19 03:39:50;;;;;;;17.50;8.97;;;2.00;99.90;;;;;;4916038;29;20204;-67
2023/01/19 03:42:20;;;;;;;17.90;9.57;;;2.10;99.90;;;;;;4908572;29;20237;-67
2023/01/19 03:44:54;;;;;;;19.13;9.87;;;2.00;99.90;;;;;;4915027;29;20560;-67
2023/01/19 03:47:25;;;;;;;22.67;9.70;;;2.00;99.90;;;;;;4905848;29;20194;-67
2023/01/19 03:49:55;;;;;;;21.00;9.57;;;2.00;99.90;;;;;;4905894;29;20208;-67
2023/01/19 03:52:29;;;;;;;21.13;9.30;;;2.00;99.90;;;;;;4913190;29;20197;-67
2023/01/19 03:54:57;;;;;;;16.70;9.27;;;2.00;99.90;;;;;;4909326;29;20194;-67
2023/01/19 03:57:25;;;;;;;21.77;9.97;;;2.00;99.90;;;;;;4902508;29;20234;-67
2023/01/19 03:59:55;;;;;;;22.37;10.23;;;2.00;99.90;;;;;;4912021;29;20205;-67
2023/01/19 04:02:24;;;;;;;30.20;10.97;;;1.90;99.90;;;;;;4913641;29;20209;-67
2023/01/19 04:04:53;;;;;;;21.97;10.07;;;1.90;99.90;;;;;;4913024;29;20213;-67
2023/01/19 04:07:21;;;;;;;24.73;11.20;;;1.90;99.90;;;;;;4909961;29;20585;-67
2023/01/19 04:09:49;;;;;;;17.57;10.20;;;1.90;99.90;;;;;;4906390;29;20208;-67
2023/01/19 04:12:18;;;;;;;21.97;9.97;;;1.90;99.90;;;;;;4917757;29;20194;-67
2023/01/19 04:14:47;;;;;;;22.00;10.20;;;1.80;99.90;;;;;;4921331;29;20588;-67
2023/01/19 04:17:59;;;;;;;20.63;10.40;;;1.90;99.90;;;;;;4908720;29;20225;-67
2023/01/19 04:20:51;;;;;;;18.47;10.57;;;1.80;99.90;;;;;;4909195;29;20536;-67
2023/01/19 04:23:19;;;;;;;27.27;11.33;;;1.70;99.90;;;;;;4912343;29;20235;-67
2023/01/19 04:25:48;;;;;;;23.40;11.50;;;1.50;99.90;;;;;;4909417;29;20202;-67
2023/01/19 04:28:17;;;;;;;21.73;11.37;;;1.50;99.90;;;;;;4911100;29;20221;-67
2023/01/19 04:30:45;;;;;;;20.47;10.83;;;1.40;99.90;;;;;;4916678;29;20219;-67
2023/01/19 04:33:14;;;;;;;23.90;11.57;;;1.30;99.90;;;;;;4901765;29;20208;-67
2023/01/19 04:35:44;;;;;;;23.63;11.47;;;1.20;99.90;;;;;;4910668;29;20198;-67
2023/01/19 04:38:12;;;;;;;26.47;11.17;;;1.20;99.90;;;;;;4907955;29;20217;-67
2023/01/19 04:40:41;;;;;;;19.10;11.27;;;1.10;99.90;;;;;;4919098;29;20672;-67
2023/01/19 04:43:09;;;;;;;22.80;10.93;;;1.10;99.90;;;;;;4906760;29;20657;-67
2023/01/19 04:45:39;;;;;;;26.17;11.33;;;1.00;99.90;;;;;;4918021;29;20236;-67
2023/01/19 04:48:07;;;;;;;22.97;11.37;;;0.90;99.90;;;;;;4909764;29;20256;-67
2023/01/19 04:50:38;;;;;;;25.73;12.50;;;0.90;99.90;;;;;;4903850;29;20658;-67
2023/01/19 04:53:06;;;;;;;22.47;11.40;;;0.80;99.90;;;;;;4913803;29;20201;-67
2023/01/19 04:55:36;;;;;;;26.10;11.90;;;0.80;99.90;;;;;;4918546;29;20205;-67
2023/01/19 04:58:05;;;;;;;25.70;13.40;;;0.70;99.90;;;;;;4916759;29;20218;-67
2023/01/19 05:00:33;;;;;;;27.90;12.50;;;0.70;99.90;;;;;;4915968;29;20657;-68
2023/01/19 05:03:07;;;;;;;31.73;12.53;;;0.70;99.90;;;;;;4915106;29;20715;-67
2023/01/19 05:05:38;;;;;;;26.00;12.00;;;0.60;99.90;;;;;;4909271;29;20208;-67
2023/01/19 05:08:06;;;;;;;25.57;12.87;;;0.60;99.90;;;;;;4916501;29;20241;-67
2023/01/19 05:10:35;;;;;;;27.93;12.67;;;0.60;99.90;;;;;;4902370;29;20197;-67
2023/01/19 05:13:04;;;;;;;32.17;14.00;;;0.60;99.90;;;;;;4923058;29;20213;-67
2023/01/19 05:15:35;;;;;;;29.57;13.37;;;0.60;99.90;;;;;;4915499;29;20190;-67
2023/01/19 05:18:06;;;;;;;37.60;15.10;;;0.50;99.90;;;;;;4917556;29;20209;-67
2023/01/19 05:20:35;;;;;;;37.80;14.97;;;0.50;99.90;;;;;;4911206;29;20203;-67
2023/01/19 05:23:05;;;;;;;36.40;16.07;;;0.40;99.90;;;;;;4896888;29;20288;-67
2023/01/19 05:25:33;;;;;;;36.40;14.97;;;0.40;99.90;;;;;;4915370;29;20312;-67
2023/01/19 05:28:02;;;;;;;41.10;16.80;;;0.30;99.90;;;;;;4917814;29;20198;-67
2023/01/19 05:30:31;;;;;;;40.55;19.20;;;0.30;99.90;;;;;;4914365;29;20454;-67
2023/01/19 05:32:59;;;;;;;42.73;19.93;;;0.40;99.90;;;;;;4916544;29;20740;-67
2023/01/19 05:35:28;;;;;;;45.33;17.23;;;0.40;99.90;;;;;;4913158;29;20209;-67
2023/01/19 05:38:04;;;;;;;29.57;13.37;;;0.30;99.90;;;;;;4914265;29;20273;-67
2023/01/19 05:40:33;;;;;;;27.50;13.43;;;0.30;99.90;;;;;;4916088;29;20205;-67
2023/01/19 05:43:03;;;;;;;28.77;14.00;;;0.30;99.90;;;;;;4916211;29;20201;-67
2023/01/19 05:45:33;;;;;;;31.60;13.83;;;0.30;99.90;;;;;;4915555;29;20664;-67
2023/01/19 05:48:01;;;;;;;27.00;13.57;;;0.30;99.90;;;;;;4914156;29;20659;-67
2023/01/19 05:50:31;;;;;;;34.77;13.87;;;0.30;99.90;;;;;;4915857;29;20212;-67
2023/01/19 05:53:00;;;;;;;30.10;14.03;;;0.30;99.90;;;;;;4911045;29;20209;-67
2023/01/19 05:55:31;;;;;;;31.43;14.17;;;0.30;99.90;;;;;;4912245;29;20545;-68
2023/01/19 05:58:00;;;;;;;37.37;15.47;;;0.40;99.90;;;;;;4905769;29;20244;-67
2023/01/19 06:00:28;;;;;;;32.90;15.30;;;0.30;99.90;;;;;;4913002;29;20201;-67
2023/01/19 06:02:59;;;;;;;31.93;15.17;;;0.30;99.90;;;;;;4909569;29;20201;-67
2023/01/19 06:05:28;;;;;;;37.93;15.73;;;0.30;99.90;;;;;;4915076;29;20304;-67
2023/01/19 06:07:57;;;;;;;35.63;15.70;;;0.30;99.90;;;;;;4914401;29;20288;-67
2023/01/19 06:10:25;;;;;;;46.83;17.60;;;0.20;99.90;;;;;;4913244;29;20205;-67
2023/01/19 06:12:55;;;;;;;37.50;16.93;;;0.20;99.90;;;;;;4922130;29;20201;-67
2023/01/19 06:15:23;;;;;;;34.97;16.13;;;0.20;99.90;;;;;;4913379;29;20205;-67
2023/01/19 06:17:52;;;;;;;31.53;15.03;;;0.20;99.90;;;;;;4909613;29;20201;-67
2023/01/19 06:20:20;;;;;;;32.43;15.33;;;0.20;99.90;;;;;;4907848;29;20217;-67
2023/01/19 06:22:49;;;;;;;36.83;15.53;;;0.10;99.90;;;;;;4916229;29;20209;-67
2023/01/19 06:25:18;;;;;;;31.63;15.30;;;0.10;99.90;;;;;;4905977;29;20882;-67
2023/01/19 06:27:46;;;;;;;31.37;15.13;;;0.10;99.90;;;;;;4911961;29;20249;-67
2023/01/19 06:30:16;;;;;;;41.63;14.97;;;0.10;99.90;;;;;;4908273;29;20266;-67
2023/01/19 06:32:44;;;;;;;37.73;14.23;;;0.20;99.90;;;;;;4916209;29;20285;-67
2023/01/19 06:35:13;;;;;;;29.23;14.47;;;0.20;99.90;;;;;;4916088;29;20193;-67
2023/01/19 06:37:41;;;;;;;32.13;15.30;;;0.30;99.90;;;;;;4906085;29;20200;-67
2023/01/19 06:40:11;;;;;;;32.80;15.40;;;0.40;99.90;;;;;;4908682;29;20256;-67
2023/01/19 06:42:41;;;;;;;30.10;15.30;;;0.40;99.90;;;;;;4910488;29;20209;-67
2023/01/19 06:45:10;;;;;;;32.27;14.43;;;0.50;99.90;;;;;;4912104;29;20193;-67
2023/01/19 06:47:40;;;;;;;34.17;15.27;;;0.50;99.90;;;;;;4909381;29;20286;-67
2023/01/19 06:50:10;;;;;;;29.23;14.67;;;0.50;99.90;;;;;;4909542;29;20610;-67
2023/01/19 06:52:41;;;;;;;38.00;16.30;;;0.60;99.90;;;;;;4911888;29;20202;-67
2023/01/19 06:55:11;;;;;;;33.13;14.77;;;0.70;99.90;;;;;;4912673;29;20197;-68
2023/01/19 06:57:39;;;;;;;39.03;16.17;;;0.70;99.90;;;;;;4914006;29;20222;-67
2023/01/19 07:00:10;;;;;;;37.57;15.63;;;0.70;99.90;;;;;;4909088;29;20751;-67
2023/01/19 07:02:42;;;;;;;41.87;15.60;;;0.80;99.90;;;;;;4911931;29;20204;-67
2023/01/19 07:05:13;;;;;;;36.53;16.07;;;0.80;99.90;;;;;;4917982;29;20281;-67
2023/01/19 07:07:43;;;;;;;35.07;15.37;;;0.80;99.90;;;;;;4915951;29;20206;-67
2023/01/19 07:10:14;;;;;;;43.70;15.93;;;0.70;99.90;;;;;;4912947;29;20209;-67
2023/01/19 07:12:45;;;;;;;30.33;14.87;;;0.80;99.90;;;;;;4914323;29;20678;-67
2023/01/19 07:15:14;;;;;;;42.57;14.57;;;0.80;99.90;;;;;;4918422;29;20206;-67
2023/01/19 07:17:44;;;;;;;34.30;15.40;;;0.70;99.90;;;;;;4896658;29;20209;-67
2023/01/19 07:20:13;;;;;;;39.50;16.23;;;0.70;99.90;;;;;;4911737;29;20247;-67
2023/01/19 07:22:44;;;;;;;33.87;14.90;;;0.60;99.90;;;;;;4906261;29;20202;-67
2023/01/19 07:25:13;;;;;;;40.93;15.37;;;0.60;99.90;;;;;;4896783;29;20690;-67
2023/01/19 07:27:41;;;;;;;37.90;15.70;;;0.60;99.90;;;;;;4913751;29;20276;-67
2023/01/19 07:30:14;;;;;;;38.40;15.73;;;0.60;99.90;;;;;;4906827;29;20194;-67
2023/01/19 07:32:44;;;;;;;35.87;15.07;;;0.60;99.90;;;;;;4912400;29;20209;-67
2023/01/19 07:35:13;;;;;;;39.07;15.10;;;0.60;99.90;;;;;;4914440;29;20201;-67
2023/01/19 07:37:41;;;;;;;34.30;14.93;;;0.50;99.90;;;;;;4926130;29;20332;-67
2023/01/19 07:40:11;;;;;;;44.27;15.53;;;0.50;99.90;;;;;;4912232;29;20269;-67
2023/01/19 07:42:39;;;;;;;38.03;14.97;;;0.50;99.90;;;;;;4904460;29;20210;-67
2023/01/19 07:45:10;;;;;;;42.83;16.33;;;0.50;99.90;;;;;;4905862;29;20641;-67
2023/01/19 07:47:39;;;;;;;42.10;15.83;;;0.50;99.90;;;;;;4909989;29;20202;-67
2023/01/19 07:50:11;;;;;;;32.00;14.73;;;0.60;99.90;;;;;;4908458;29;20206;-67
2023/01/19 07:52:39;;;;;;;33.60;14.63;;;0.60;99.90;;;;;;4905418;29;20193;-67
2023/01/19 07:55:09;;;;;;;40.87;15.27;;;0.70;99.90;;;;;;4901384;29;20658;-67
2023/01/19 07:57:37;;;;;;;33.10;15.47;;;0.80;99.90;;;;;;4904420;29;20222;-67
2023/01/19 08:00:07;;;;;;;38.13;15.53;;;0.80;99.90;;;;;;4907773;29;20688;-67
2023/01/19 08:02:36;;;;;;;39.13;15.43;;;0.70;99.90;;;;;;4910366;29;20387;-67
2023/01/19 08:05:05;;;;;;;39.20;15.60;;;0.70;99.90;;;;;;4909607;29;20205;-67
2023/01/19 08:07:35;;;;;;;31.77;15.63;;;0.70;99.90;;;;;;4909463;29;20275;-67
2023/01/19 08:10:06;;;;;;;32.30;15.77;;;0.70;99.90;;;;;;4910124;29;20216;-67
2023/01/19 08:12:37;;;;;;;36.80;15.83;;;0.80;99.90;;;;;;4912310;29;20280;-67
2023/01/19 08:15:06;;;;;;;41.07;16.77;;;0.90;99.90;;;;;;4913933;29;20197;-67
2023/01/19 08:17:35;;;;;;;38.93;16.23;;;0.90;99.90;;;;;;4909144;29;20335;-67
2023/01/19 08:20:05;;;;;;;32.87;15.70;;;0.90;99.90;;;;;;4895682;29;20308;-67
2023/01/19 08:22:35;;;;;;;36.97;16.03;;;1.00;99.90;;;;;;4910611;29;20296;-67
2023/01/19 08:25:04;;;;;;;36.80;16.50;;;1.00;99.90;;;;;;4910511;29;20233;-67
2023/01/19 08:27:32;;;;;;;34.13;14.47;;;1.00;99.90;;;;;;4907369;29;20265;-67
2023/01/19 08:30:00;;;;;;;30.13;15.00;;;1.00;99.90;;;;;;4905873;29;20552;-67
2023/01/19 08:32:29;;;;;;;41.13;16.53;;;1.10;99.90;;;;;;4905879;29;20201;-67
2023/01/19 08:34:57;;;;;;;36.60;15.20;;;1.10;99.90;;;;;;4910930;29;20205;-67
2023/01/19 08:37:26;;;;;;;35.43;15.30;;;1.20;99.90;;;;;;4913351;29;20237;-67
2023/01/19 08:39:55;;;;;;;31.10;14.80;;;1.20;99.90;;;;;;4914601;29;20217;-67
2023/01/19 08:42:26;;;;;;;37.83;14.37;;;1.20;99.90;;;;;;4900530;29;20198;-67
2023/01/19 08:44:55;;;;;;;30.70;14.70;;;1.30;99.90;;;;;;4905158;29;20194;-67
2023/01/19 08:47:25;;;;;;;29.03;14.47;;;1.30;99.90;;;;;;4895574;29;20186;-67
2023/01/19 08:49:54;;;;;;;33.20;15.00;;;1.30;99.90;;;;;;4895981;29;20289;-67
2023/01/19 08:52:23;;;;;;;31.27;14.10;;;1.40;99.90;;;;;;4903246;29;20196;-67
2023/01/19 08:54:51;;;;;;;34.10;14.53;;;1.40;99.90;;;;;;4913007;29;20556;-67
2023/01/19 08:57:21;;;;;;;32.80;14.93;;;1.50;99.90;;;;;;4908421;29;20248;-67
2023/01/19 08:59:49;;;;;;;35.37;13.50;;;1.70;99.90;;;;;;4914113;29;20216;-67
2023/01/19 09:02:18;;;;;;;29.07;13.87;;;1.80;99.90;;;;;;4907281;29;20202;-67
2023/01/19 09:04:46;;;;;;;37.63;17.47;;;1.90;99.90;;;;;;4907590;29;20205;-67
2023/01/19 09:07:16;;;;;;;33.50;15.23;;;2.00;99.90;;;;;;4911161;29;20197;-67
2023/01/19 09:09:44;;;;;;;33.10;15.53;;;2.10;99.90;;;;;;4917387;29;20228;-67
2023/01/19 09:12:13;;;;;;;40.80;16.80;;;2.20;99.90;;;;;;4916849;29;20272;-67
2023/01/19 09:14:43;;;;;;;29.07;15.63;;;2.30;99.90;;;;;;4902406;29;20226;-67
2023/01/19 09:17:13;;;;;;;35.27;16.03;;;2.30;99.90;;;;;;4914934;29;20216;-67
2023/01/19 09:19:41;;;;;;;33.63;15.07;;;2.40;99.90;;;;;;4899461;29;20206;-67
2023/01/19 09:22:10;;;;;;;36.67;15.70;;;2.40;99.90;;;;;;4909802;29;20197;-67
2023/01/19 09:24:38;;;;;;;38.17;18.87;;;2.50;99.90;;;;;;4908393;29;20237;-67
2023/01/19 09:27:09;;;;;;;47.20;20.37;;;2.50;99.90;;;;;;4931018;29;20198;-67
2023/01/19 09:29:40;;;;;;;42.50;19.03;;;2.40;99.90;;;;;;4914814;29;20335;-67
2023/01/19 09:32:10;;;;;;;45.73;19.80;;;2.40;99.90;;;;;;4916641;29;20601;-67
2023/01/19 09:34:39;;;;;;;45.13;19.57;;;2.30;99.90;;;;;;4913135;29;20202;-67
2023/01/19 09:37:07;;;;;;;39.10;19.27;;;2.30;99.90;;;;;;4905148;29;20209;-67
2023/01/19 09:39:36;;;;;;;48.10;20.40;;;2.20;99.90;;;;;;4905959;29;20224;-67
2023/01/19 09:42:13;;;;;;;51.90;20.87;;;2.10;99.90;;;;;;4909580;29;20221;-67
2023/01/19 09:44:44;;;;;;;46.43;21.07;;;2.00;99.90;;;;;;4912041;29;20208;-67
2023/01/19 09:47:16;;;;;;;46.93;20.07;;;1.90;99.90;;;;;;4913162;29;20263;-67
2023/01/19 09:49:50;;;;;;;47.70;20.67;;;1.90;99.90;;;;;;4911929;29;20205;-67
2023/01/19 09:52:19;;;;;;;50.83;20.77;;;1.80;99.90;;;;;;4914647;29;20556;-67
2023/01/19 09:54:53;;;;;;;47.57;20.20;;;1.60;99.90;;;;;;4911570;29;20288;-67
2023/01/19 09:57:23;;;;;;;52.10;21.47;;;1.60;99.90;;;;;;4915073;29;20228;-67
2023/01/19 09:59:56;;;;;;;55.80;21.97;;;1.50;99.90;;;;;;4911751;29;20229;-67
2023/01/19 10:02:35;;;;;;;48.33;20.33;;;1.50;99.90;;;;;;4903057;29;20197;-67
2023/01/19 10:05:14;;;;;;;49.63;20.53;;;1.50;99.90;;;;;;4908925;29;20213;-67
2023/01/19 10:08:07;;;;;;;47.83;20.67;;;1.50;99.90;;;;;;4913073;29;20209;-67
2023/01/19 10:10:36;;;;;;;54.57;21.53;;;1.50;99.90;;;;;;4913638;29;20197;-67
2023/01/19 10:13:19;;;;;;;59.77;22.67;;;1.60;99.90;;;;;;4923419;29;20201;-67
2023/01/19 10:15:56;;;;;;;64.13;23.73;;;1.60;99.90;;;;;;4905522;29;20213;-67
2023/01/19 10:18:33;;;;;;;58.10;22.13;;;1.70;99.90;;;;;;4907582;29;20200;-67
2023/01/19 10:21:06;;;;;;;60.93;23.00;;;1.70;99.90;;;;;;4904795;29;20218;-67
2023/01/19 10:23:42;;;;;;;64.00;23.73;;;1.70;99.90;;;;;;4901763;29;20714;-67
2023/01/19 10:26:18;;;;;;;65.43;25.67;;;1.80;99.90;;;;;;4915507;29;20205;-67
2023/01/19 10:28:50;;;;;;;54.77;22.67;;;1.90;99.90;;;;;;4912418;29;20205;-68
2023/01/19 10:31:23;;;;;;;67.00;23.13;;;1.90;99.90;;;;;;4914661;29;20201;-67
2023/01/19 10:33:54;;;;;;;60.90;22.70;;;2.00;99.90;;;;;;4911883;29;20205;-66
2023/01/19 10:36:27;;;;;;;59.90;22.10;;;2.10;99.90;;;;;;4915205;29;20232;-68
2023/01/19 10:38:56;;;;;;;56.17;21.30;;;2.10;99.90;;;;;;4912721;29;20202;-67
2023/01/19 10:41:28;;;;;;;53.37;21.47;;;2.30;99.90;;;;;;4914576;29;20301;-67
2023/01/19 10:44:01;;;;;;;56.67;20.23;;;2.40;99.90;;;;;;4915580;29;20204;-67
2023/01/19 10:46:36;;;;;;;59.37;22.83;;;2.50;99.90;;;;;;4911620;29;20205;-67
2023/01/19 10:49:07;;;;;;;51.10;21.53;;;2.60;99.90;;;;;;4914663;29;20209;-67
2023/01/19 10:51:47;;;;;;;59.30;22.50;;;2.70;99.90;;;;;;4907661;29;20194;-67
2023/01/19 10:54:16;;;;;;;44.97;19.57;;;2.60;99.90;;;;;;4911341;29;20202;-67
2023/01/19 10:56:51;;;;;;;44.07;20.17;;;2.60;99.90;;;;;;4905094;29;20210;-66
2023/01/19 10:59:32;;;;;;;48.20;20.23;;;2.80;99.90;;;;;;4912125;29;20233;-67
2023/01/19 11:02:20;;;;;;;50.90;19.70;;;2.90;99.90;;;;;;4910089;29;20624;-67
2023/01/19 11:04:53;;;;;;;43.93;19.33;;;2.90;99.90;;;;;;4914124;29;20601;-67
2023/01/19 11:07:23;;;;;;;49.17;19.53;;;2.90;99.90;;;;;;4915426;29;20201;-67
2023/01/19 11:10:13;;;;;;;48.33;19.50;;;2.80;99.90;;;;;;4908897;29;20213;-67
2023/01/19 11:12:42;;;;;;;47.83;19.20;;;2.80;99.90;;;;;;4910912;29;20221;-67
2023/01/19 11:15:15;;;;;;;46.37;19.17;;;2.90;99.90;;;;;;4911727;29;20205;-67
2023/01/19 11:17:47;;;;;;;46.53;19.20;;;3.00;99.90;;;;;;4926326;29;20197;-67
2023/01/19 11:20:22;;;;;;;43.87;19.00;;;3.00;99.90;;;;;;4917038;29;20297;-67
2023/01/19 11:23:05;;;;;;;48.67;19.87;;;3.00;99.90;;;;;;4908492;29;20685;-67
2023/01/19 11:25:36;;;;;;;44.27;18.30;;;3.00;99.90;;;;;;4907536;29;20205;-67
2023/01/19 11:28:05;;;;;;;41.37;17.70;;;2.80;99.90;;;;;;4912450;29;20210;-67
2023/01/19 11:30:35;;;;;;;44.40;18.23;;;2.60;99.90;;;;;;4911382;29;20665;-67
2023/01/19 11:33:05;;;;;;;40.17;17.60;;;2.70;99.90;;;;;;4908958;29;20204;-67
2023/01/19 11:35:41;;;;;;;40.23;18.03;;;2.60;99.90;;;;;;4914552;29;20201;-67
2023/01/19 11:38:18;;;;;;;35.73;17.33;;;2.70;99.90;;;;;;4915489;29;20207;-67
2023/01/19 11:40:53;;;;;;;36.20;16.90;;;2.80;99.90;;;;;;4908527;29;20204;-67
2023/01/19 11:43:24;;;;;;;36.07;17.17;;;2.80;99.90;;;;;;4905752;29;20287;-67
2023/01/19 11:45:54;;;;;;;38.97;17.33;;;2.60;99.90;;;;;;4908626;29;20205;-67
2023/01/19 11:48:28;;;;;;;39.93;17.23;;;2.50;99.90;;;;;;4912645;29;20224;-67
2023/01/19 11:51:02;;;;;;;37.00;17.70;;;2.60;99.90;;;;;;4897054;29;20205;-67
2023/01/19 11:53:33;;;;;;;35.67;16.03;;;2.60;99.90;;;;;;4903300;29;20200;-67
2023/01/19 11:56:05;;;;;;;37.83;17.07;;;2.60;99.90;;;;;;4911455;29;20229;-67
2023/01/19 11:58:41;;;;;;;36.03;17.47;;;2.50;99.90;;;;;;4914232;29;20592;-67
2023/01/19 12:01:19;;;;;;;43.13;17.87;;;2.60;99.90;;;;;;4905634;29;20255;-67
2023/01/19 12:03:55;;;;;;;37.77;17.23;;;2.60;99.90;;;;;;4909375;29;20200;-67
2023/01/19 12:06:29;;;;;;;34.50;15.97;;;2.50;99.90;;;;;;4909709;29;20197;-67
2023/01/19 12:09:01;;;;;;;39.07;16.90;;;2.50;99.90;;;;;;4903064;29;20564;-67
2023/01/19 12:11:33;;;;;;;35.03;16.83;;;2.50;99.90;;;;;;4913294;29;20189;-67
2023/01/19 12:14:02;;;;;;;35.97;16.03;;;2.50;99.90;;;;;;4906399;29;20284;-67
2023/01/19 12:16:33;;;;;;;36.60;17.10;;;2.60;99.90;;;;;;4914245;29;20201;-67
2023/01/19 12:19:04;;;;;;;35.27;17.33;;;2.50;99.90;;;;;;4913464;29;20202;-67
2023/01/19 12:21:34;;;;;;;41.50;17.83;;;2.40;99.90;;;;;;4910227;29;20225;-67
2023/01/19 12:24:12;;;;;;;39.63;16.17;;;2.60;99.90;;;;;;4909257;29;20235;-67
2023/01/19 12:26:49;;;;;;;33.47;17.07;;;2.90;99.90;;;;;;4912465;29;20268;-67
2023/01/19 12:29:20;;;;;;;40.30;17.43;;;2.90;99.90;;;;;;4907099;29;20553;-67
2023/01/19 12:32:19;;;;;;;32.90;16.80;;;2.90;99.90;;;;;;4915376;29;20197;-67
2023/01/19 12:34:50;;;;;;;32.63;16.33;;;2.90;99.90;;;;;;4918306;29;20238;-66
2023/01/19 12:37:40;;;;;;;38.93;16.27;;;3.00;99.90;;;;;;4912690;29;20201;-66
2023/01/19 12:40:24;;;;;;;34.53;16.17;;;3.20;99.90;;;;;;4903809;29;20268;-67
2023/01/19 12:43:00;;;;;;;34.23;16.97;;;3.30;99.90;;;;;;4915258;29;20213;-67
2023/01/19 12:45:33;;;;;;;33.03;16.20;;;3.40;99.90;;;;;;4908749;29;20198;-67
2023/01/19 12:48:03;;;;;;;34.87;16.57;;;3.30;99.90;;;;;;4918772;29;20541;-67
2023/01/19 12:50:36;;;;;;;35.80;16.03;;;3.30;99.90;;;;;;4914409;29;20209;-67
2023/01/19 12:53:16;;;;;;;35.43;16.30;;;3.20;99.90;;;;;;4905500;29;20205;-66
2023/01/19 12:55:46;;;;;;;33.43;16.00;;;3.20;99.90;;;;;;4913896;29;20205;-67
2023/01/19 12:58:17;;;;;;;32.87;16.00;;;3.20;99.90;;;;;;4918426;29;20640;-67
2023/01/19 13:00:47;;;;;;;31.50;16.20;;;3.20;99.90;;;;;;4909198;29;20240;-66
2023/01/19 13:03:45;;;;;;;36.80;16.83;;;3.30;99.90;;;;;;4915634;29;20344;-67
2023/01/19 13:06:14;;;;;;;31.03;15.23;;;3.40;99.90;;;;;;4916448;29;20213;-67
2023/01/19 13:09:00;;;;;;;37.47;17.23;;;3.40;99.90;;;;;;4915974;29;20205;-66
2023/01/19 13:11:29;;;;;;;35.20;15.63;;;3.50;99.90;;;;;;4908575;29;20209;-67